Time;durP1;ratioP1;P1;durP2;ratioP2;P2;SDS_P1;SDS_P2;PMS_P1;PMS_P2;Temp;Humidity;BMP_temperature;BMP_pressure;BME280_temperature;BME280_humidity;BME280_pressure;Samples;Min_cycle;Max_cycle;Signal;HPM_P1;HPM_P2
2022/08/22 00:02:13;;;;;;;2.22;0.60;;;19.20;83.10;;;;;;5022140;28;20026;-57
2022/08/22 00:04:55;;;;;;;2.95;0.98;;;19.20;83.20;;;;;;5032193;28;20013;-57
2022/08/22 00:07:45;;;;;;;2.78;0.70;;;19.20;83.30;;;;;;5015603;28;20014;-56
2022/08/22 00:10:19;;;;;;;5.80;1.00;;;19.10;83.50;;;;;;5015791;28;20129;-57
2022/08/22 00:12:47;;;;;;;3.72;0.98;;;19.20;83.60;;;;;;5015356;28;20022;-58
2022/08/22 00:15:19;;;;;;;2.38;0.80;;;19.10;83.70;;;;;;5019108;28;20366;-57
2022/08/22 00:17:54;;;;;;;2.95;0.70;;;19.20;83.90;;;;;;5027677;28;20037;-57
2022/08/22 00:20:34;;;;;;;2.63;0.68;;;19.10;83.90;;;;;;5024358;28;20021;-57
2022/08/22 00:23:03;;;;;;;2.47;0.65;;;19.10;84.10;;;;;;5014559;28;20038;-57
2022/08/22 00:25:40;;;;;;;3.30;0.95;;;19.10;84.20;;;;;;5041514;28;20028;-58
2022/08/22 00:28:15;;;;;;;3.60;0.70;;;19.10;84.30;;;;;;5041549;28;20416;-58
2022/08/22 00:31:17;;;;;;;4.55;0.95;;;19.10;84.50;;;;;;5020985;28;20018;-57
2022/08/22 00:34:01;;;;;;;4.30;0.93;;;19.10;84.50;;;;;;5020271;28;20030;-57
2022/08/22 00:36:45;;;;;;;2.65;0.68;;;19.00;84.80;;;;;;5015866;28;20022;-58
2022/08/22 00:39:18;;;;;;;2.15;0.70;;;19.00;85.00;;;;;;5030744;28;20025;-57
2022/08/22 00:42:06;;;;;;;3.83;1.00;;;19.00;85.30;;;;;;5018876;28;20061;-58
2022/08/22 00:45:10;;;;;;;2.80;0.70;;;19.00;85.50;;;;;;5017339;28;20101;-57
2022/08/22 00:47:38;;;;;;;4.03;0.63;;;19.00;85.60;;;;;;5014888;28;20135;-57
2022/08/22 00:50:48;;;;;;;4.82;0.90;;;19.00;86.00;;;;;;5014815;28;20470;-57
2022/08/22 00:53:38;;;;;;;2.63;0.82;;;19.00;85.90;;;;;;5014485;28;20022;-57
2022/08/22 00:56:22;;;;;;;2.72;0.90;;;19.00;86.20;;;;;;5016107;28;20037;-58
2022/08/22 00:59:25;;;;;;;2.40;0.90;;;19.00;86.30;;;;;;5015605;28;20033;-57
2022/08/22 01:02:20;;;;;;;3.40;0.80;;;18.90;86.40;;;;;;5034071;28;20030;-57
2022/08/22 01:05:17;;;;;;;2.00;0.88;;;18.90;86.60;;;;;;5025706;28;20056;-58
2022/08/22 01:08:08;;;;;;;2.22;0.77;;;18.90;86.80;;;;;;5045035;28;20111;-58
2022/08/22 01:11:13;;;;;;;3.30;1.00;;;18.90;86.90;;;;;;5023575;28;20100;-58
2022/08/22 01:13:57;;;;;;;2.95;0.75;;;18.90;86.90;;;;;;5014577;28;20026;-58
2022/08/22 01:16:34;;;;;;;2.92;0.90;;;18.90;87.20;;;;;;5023882;28;20030;-58
2022/08/22 01:19:34;;;;;;;3.00;0.93;;;18.80;87.30;;;;;;5028786;28;20022;-58
2022/08/22 01:22:17;;;;;;;3.85;0.93;;;18.90;87.30;;;;;;5019831;28;20025;-54
2022/08/22 01:25:21;;;;;;;2.90;1.00;;;18.80;87.60;;;;;;5013991;28;20026;-58
2022/08/22 01:28:30;;;;;;;2.78;1.13;;;18.80;87.60;;;;;;5033012;28;20026;-57
2022/08/22 01:31:32;;;;;;;2.05;0.80;;;18.80;87.80;;;;;;5023586;28;20030;-58
2022/08/22 01:34:34;;;;;;;3.50;0.93;;;18.80;88.10;;;;;;5026960;28;20030;-57
2022/08/22 01:37:25;;;;;;;3.58;0.88;;;18.80;88.20;;;;;;5013569;28;20022;-57
2022/08/22 01:40:09;;;;;;;2.40;1.00;;;18.80;88.50;;;;;;5013596;28;20466;-57
2022/08/22 01:42:57;;;;;;;2.80;0.80;;;18.80;88.80;;;;;;5013374;28;20052;-58
2022/08/22 01:45:40;;;;;;;3.33;1.30;;;18.80;89.10;;;;;;5017884;28;20033;-57
2022/08/22 01:48:18;;;;;;;1.58;0.80;;;18.70;89.30;;;;;;5031044;28;20017;-57
2022/08/22 01:50:48;;;;;;;2.95;0.63;;;18.80;89.50;;;;;;5013488;28;20022;-58
2022/08/22 01:53:26;;;;;;;2.17;1.02;;;18.70;89.60;;;;;;5039365;28;20017;-58
2022/08/22 01:56:08;;;;;;;3.92;0.98;;;18.70;89.70;;;;;;5038315;28;20024;-58
2022/08/22 01:58:42;;;;;;;3.05;1.20;;;18.70;90.00;;;;;;5013405;28;20030;-58
2022/08/22 02:01:21;;;;;;;3.67;0.93;;;18.70;90.00;;;;;;5023286;28;20057;-58
2022/08/22 02:04:00;;;;;;;2.90;1.17;;;18.70;90.00;;;;;;5013170;28;20019;-58
2022/08/22 02:06:51;;;;;;;3.83;1.35;;;18.70;90.10;;;;;;5013175;28;20050;-58
2022/08/22 02:09:52;;;;;;;2.95;1.13;;;18.80;90.10;;;;;;5015029;28;20176;-58
2022/08/22 02:12:44;;;;;;;4.13;1.52;;;18.70;90.10;;;;;;5015499;28;20495;-57
2022/08/22 02:15:29;;;;;;;3.55;1.20;;;18.70;90.30;;;;;;5027513;28;20071;-58
2022/08/22 02:18:04;;;;;;;4.88;1.05;;;18.70;90.30;;;;;;5012955;28;20036;-57
2022/08/22 02:20:58;;;;;;;4.57;1.20;;;18.70;90.30;;;;;;5018390;28;20306;-54
2022/08/22 02:23:45;;;;;;;4.72;0.88;;;18.70;90.40;;;;;;5028031;28;20057;-57
2022/08/22 02:26:22;;;;;;;4.40;1.25;;;18.70;90.40;;;;;;5033897;28;20017;-57
2022/08/22 02:29:17;;;;;;;3.53;1.60;;;18.70;90.50;;;;;;5018871;28;20029;-57
2022/08/22 02:31:56;;;;;;;6.13;1.38;;;18.70;90.50;;;;;;5028568;28;20120;-57
2022/08/22 02:34:58;;;;;;;4.40;0.98;;;18.60;90.60;;;;;;5018857;28;20056;-57
2022/08/22 02:38:06;;;;;;;3.22;1.10;;;18.70;90.70;;;;;;5034141;28;20666;-57
2022/08/22 02:40:40;;;;;;;3.50;1.02;;;18.60;90.80;;;;;;5016889;28;20076;-58
2022/08/22 02:43:12;;;;;;;5.05;1.60;;;18.60;91.00;;;;;;5012816;28;20038;-58
2022/08/22 02:45:52;;;;;;;4.40;1.35;;;18.60;91.10;;;;;;5027875;28;20022;-57
2022/08/22 02:48:38;;;;;;;3.05;1.60;;;18.60;91.10;;;;;;5027962;28;20018;-57
2022/08/22 02:51:26;;;;;;;3.10;1.17;;;18.60;91.20;;;;;;5017385;28;20097;-57
2022/08/22 02:54:04;;;;;;;2.65;1.20;;;18.60;91.20;;;;;;5012555;28;20022;-57
2022/08/22 02:56:44;;;;;;;4.50;1.50;;;18.60;91.30;;;;;;5026823;28;20220;-58
2022/08/22 02:59:31;;;;;;;2.92;1.45;;;18.60;91.40;;;;;;5023773;28;20030;-58
2022/08/22 03:02:17;;;;;;;3.88;1.90;;;18.60;91.40;;;;;;5023498;28;20521;-57
2022/08/22 03:04:49;;;;;;;3.50;1.60;;;18.50;91.50;;;;;;5014150;28;20497;-57
2022/08/22 03:07:24;;;;;;;2.78;1.35;;;18.50;91.60;;;;;;5022586;28;20017;-57
2022/08/22 03:10:14;;;;;;;4.93;1.77;;;18.50;91.60;;;;;;5015914;28;20050;-57
2022/08/22 03:12:54;;;;;;;5.20;1.38;;;18.50;91.60;;;;;;5012341;28;20097;-57
2022/08/22 03:15:41;;;;;;;4.28;1.38;;;18.50;91.70;;;;;;5022521;28;20030;-58
2022/08/22 03:18:26;;;;;;;3.40;1.45;;;18.40;91.70;;;;;;5017281;28;20545;-57
2022/08/22 03:21:12;;;;;;;4.47;1.30;;;18.50;91.80;;;;;;5017042;28;20490;-57
2022/08/22 03:23:45;;;;;;;4.15;1.77;;;18.40;91.80;;;;;;5017469;28;20026;-57
2022/08/22 03:26:45;;;;;;;3.97;1.70;;;18.40;92.00;;;;;;5017814;28;20097;-58
2022/08/22 03:29:20;;;;;;;5.93;1.63;;;18.40;92.00;;;;;;5014461;28;20116;-57
2022/08/22 03:32:09;;;;;;;3.53;1.50;;;18.30;92.10;;;;;;5015865;28;20026;-57
2022/08/22 03:34:36;;;;;;;3.60;1.42;;;18.40;92.10;;;;;;5016216;28;20478;-57
2022/08/22 03:37:20;;;;;;;4.93;1.63;;;18.30;92.30;;;;;;5015840;28;20508;-57
2022/08/22 03:39:45;;;;;;;4.70;1.45;;;18.40;92.30;;;;;;5015798;28;20036;-58
2022/08/22 03:42:39;;;;;;;4.57;1.23;;;18.30;92.40;;;;;;5021212;28;20133;-54
2022/08/22 03:45:24;;;;;;;2.40;1.30;;;18.30;92.40;;;;;;5015844;28;20022;-56
2022/08/22 03:48:15;;;;;;;5.40;1.52;;;18.30;92.40;;;;;;5027518;28;20024;-57
2022/08/22 03:51:21;;;;;;;6.65;1.33;;;18.30;92.50;;;;;;5026232;28;20108;-57
2022/08/22 03:54:25;;;;;;;5.50;1.27;;;18.30;92.50;;;;;;5020144;28;20065;-58
2022/08/22 03:57:21;;;;;;;4.15;1.17;;;18.20;92.60;;;;;;5015594;28;20049;-58
2022/08/22 04:00:19;;;;;;;4.65;1.38;;;18.20;92.70;;;;;;5015577;28;20413;-57
2022/08/22 04:03:32;;;;;;;3.55;1.40;;;18.20;92.80;;;;;;5022436;28;20442;-58
2022/08/22 04:06:21;;;;;;;3.83;1.25;;;18.10;92.80;;;;;;5015944;28;20029;-57
2022/08/22 04:08:57;;;;;;;4.57;1.40;;;18.10;93.00;;;;;;5015279;28;20030;-58
2022/08/22 04:11:41;;;;;;;5.20;1.33;;;18.00;93.00;;;;;;5016030;28;20025;-58
2022/08/22 04:14:34;;;;;;;2.70;1.58;;;18.00;93.10;;;;;;5030537;28;20378;-58
2022/08/22 04:17:48;;;;;;;6.20;1.52;;;18.00;93.20;;;;;;5015147;28;20022;-58
2022/08/22 04:20:30;;;;;;;3.88;1.40;;;18.00;93.30;;;;;;5019163;28;20033;-57
2022/08/22 04:23:17;;;;;;;2.55;1.13;;;18.00;93.40;;;;;;5044780;28;20040;-56
2022/08/22 04:25:49;;;;;;;3.47;1.52;;;18.00;93.40;;;;;;5018587;28;20017;-58
2022/08/22 04:28:23;;;;;;;4.68;1.80;;;18.00;93.50;;;;;;5034116;28;20508;-57
2022/08/22 04:31:11;;;;;;;5.43;1.45;;;18.00;93.60;;;;;;5023141;28;20400;-57
2022/08/22 04:33:48;;;;;;;4.45;1.77;;;18.00;93.60;;;;;;5027950;28;20462;-57
2022/08/22 04:36:29;;;;;;;5.55;1.85;;;17.90;93.70;;;;;;5034180;28;20071;-57
2022/08/22 04:39:18;;;;;;;2.95;1.70;;;17.90;93.80;;;;;;5014783;28;20029;-58
2022/08/22 04:41:52;;;;;;;3.83;1.80;;;18.00;93.80;;;;;;5020374;28;20147;-57
2022/08/22 04:44:41;;;;;;;4.95;1.73;;;18.00;93.90;;;;;;5014445;28;20044;-58
2022/08/22 04:47:44;;;;;;;4.13;1.90;;;17.90;94.00;;;;;;5014747;28;20022;-56
2022/08/22 04:50:23;;;;;;;4.35;1.98;;;17.90;94.00;;;;;;5014542;28;20030;-57
2022/08/22 04:53:07;;;;;;;3.80;2.03;;;17.90;94.10;;;;;;5014363;28;20060;-58
2022/08/22 04:55:36;;;;;;;4.13;1.63;;;17.90;94.20;;;;;;5016396;28;20529;-57
2022/08/22 04:58:27;;;;;;;4.57;2.13;;;17.90;94.30;;;;;;5032775;28;20060;-57
2022/08/22 05:00:57;;;;;;;2.88;1.60;;;17.90;94.30;;;;;;5023473;28;20024;-57
2022/08/22 05:03:27;;;;;;;3.60;1.83;;;17.80;94.40;;;;;;5018451;28;20034;-58
2022/08/22 05:05:56;;;;;;;3.72;1.83;;;17.80;94.40;;;;;;5029407;28;20109;-56
2022/08/22 05:08:25;;;;;;;5.13;1.87;;;17.80;94.50;;;;;;5014201;28;20580;-57
2022/08/22 05:10:52;;;;;;;4.53;2.15;;;17.80;94.50;;;;;;5014189;28;20014;-57
2022/08/22 05:13:57;;;;;;;4.05;1.80;;;17.80;94.50;;;;;;5029082;28;20104;-57
2022/08/22 05:16:33;;;;;;;8.00;2.28;;;17.90;94.50;;;;;;5017919;28;20080;-58
2022/08/22 05:19:13;;;;;;;6.22;1.70;;;17.80;94.60;;;;;;5020040;28;20048;-57
2022/08/22 05:21:41;;;;;;;4.65;2.15;;;17.90;94.60;;;;;;5033828;28;20021;-55
2022/08/22 05:24:37;;;;;;;2.85;1.80;;;17.90;94.70;;;;;;5015456;28;20029;-58
2022/08/22 05:27:10;;;;;;;4.03;1.98;;;17.90;94.60;;;;;;5014042;28;20026;-57
2022/08/22 05:29:39;;;;;;;4.35;2.17;;;17.90;94.70;;;;;;5013971;28;20108;-57
2022/08/22 05:32:10;;;;;;;7.18;2.15;;;18.00;94.80;;;;;;5014201;28;20018;-57
2022/08/22 05:34:40;;;;;;;4.30;1.75;;;18.00;94.80;;;;;;5015477;28;20116;-56
2022/08/22 05:37:37;;;;;;;4.88;2.08;;;18.00;94.90;;;;;;5027881;28;20014;-56
2022/08/22 05:40:03;;;;;;;3.65;2.20;;;18.00;94.80;;;;;;5028107;28;20072;-57
2022/08/22 05:42:33;;;;;;;5.65;1.85;;;18.00;94.90;;;;;;5017751;28;20042;-57
2022/08/22 05:45:01;;;;;;;8.35;2.15;;;18.10;94.90;;;;;;5012059;28;20437;-57
2022/08/22 05:47:41;;;;;;;3.92;2.47;;;18.10;94.90;;;;;;5034134;28;20033;-57
2022/08/22 05:50:23;;;;;;;2.42;1.23;;;18.10;94.90;;;;;;5034270;28;20029;-57
2022/08/22 05:53:14;;;;;;;3.28;1.58;;;18.10;94.90;;;;;;5013295;28;20083;-57
2022/08/22 05:56:02;;;;;;;3.92;1.88;;;18.10;94.80;;;;;;5025562;28;20033;-57
2022/08/22 05:58:45;;;;;;;5.43;2.00;;;18.20;95.00;;;;;;5018657;28;20100;-58
2022/08/22 06:01:10;;;;;;;5.78;1.85;;;18.20;95.00;;;;;;5030794;28;20100;-57
2022/08/22 06:03:57;;;;;;;4.90;2.05;;;18.20;95.00;;;;;;5031726;28;20109;-56
2022/08/22 06:06:26;;;;;;;3.75;1.60;;;18.30;95.00;;;;;;5026252;28;20026;-57
2022/08/22 06:09:03;;;;;;;6.28;2.15;;;18.30;95.10;;;;;;5019354;28;20069;-57
2022/08/22 06:11:43;;;;;;;5.93;2.42;;;18.40;95.00;;;;;;5013017;28;20041;-57
2022/08/22 06:14:33;;;;;;;3.83;2.10;;;18.40;95.00;;;;;;5026844;28;20040;-58
2022/08/22 06:17:09;;;;;;;3.58;1.90;;;18.40;95.10;;;;;;5024834;28;20041;-57
2022/08/22 06:19:38;;;;;;;4.22;2.50;;;18.50;95.10;;;;;;5018937;28;20121;-57
2022/08/22 06:22:04;;;;;;;4.22;1.88;;;18.50;95.10;;;;;;5031765;28;20033;-57
2022/08/22 06:24:33;;;;;;;5.32;2.10;;;18.60;95.10;;;;;;5029404;28;20106;-58
2022/08/22 06:27:08;;;;;;;5.70;2.47;;;18.70;95.10;;;;;;5027768;28;20431;-58
2022/08/22 06:29:45;;;;;;;4.75;2.53;;;18.70;95.00;;;;;;5017393;28;20104;-57
2022/08/22 06:32:27;;;;;;;4.57;2.67;;;18.80;95.00;;;;;;5012683;28;20030;-57
2022/08/22 06:35:00;;;;;;;5.85;3.05;;;18.80;95.00;;;;;;5018037;28;20022;-58
2022/08/22 06:37:32;;;;;;;6.20;2.80;;;18.90;95.10;;;;;;5012393;28;20037;-57
2022/08/22 06:40:00;;;;;;;5.53;2.45;;;18.90;95.10;;;;;;5020066;28;20393;-58
2022/08/22 06:42:29;;;;;;;6.00;2.65;;;19.00;95.20;;;;;;5029985;28;20077;-56
2022/08/22 06:45:00;;;;;;;5.50;2.63;;;19.00;95.20;;;;;;5021288;28;20025;-58
2022/08/22 06:47:37;;;;;;;6.93;2.85;;;19.10;95.20;;;;;;5016341;28;20076;-58
2022/08/22 06:50:13;;;;;;;7.28;3.13;;;19.10;95.10;;;;;;5027827;28;20022;-58
2022/08/22 06:52:48;;;;;;;4.63;2.55;;;19.20;95.20;;;;;;5013156;28;20060;-57
2022/08/22 06:55:15;;;;;;;3.60;2.42;;;19.20;95.20;;;;;;5025006;28;20466;-58
2022/08/22 06:58:02;;;;;;;6.80;3.35;;;19.30;95.30;;;;;;5030580;28;20025;-57
2022/08/22 07:00:31;;;;;;;7.35;2.92;;;19.30;95.20;;;;;;5015269;28;20371;-58
2022/08/22 07:03:29;;;;;;;6.40;3.17;;;19.30;95.30;;;;;;5011749;28;20026;-58
2022/08/22 07:05:56;;;;;;;6.13;3.30;;;19.40;95.20;;;;;;5023993;28;20030;-57
2022/08/22 07:08:23;;;;;;;4.65;2.83;;;19.50;95.20;;;;;;5032212;28;20547;-57
2022/08/22 07:11:07;;;;;;;4.97;2.83;;;19.50;95.10;;;;;;5017018;28;20156;-58
2022/08/22 07:13:36;;;;;;;6.97;3.00;;;19.60;95.00;;;;;;5033718;28;20021;-58
2022/08/22 07:16:06;;;;;;;8.80;3.17;;;19.60;95.00;;;;;;5023323;28;20427;-57
2022/08/22 07:18:32;;;;;;;;;;;19.70;95.00;;;;;;5035189;28;20084;-57
2022/08/22 07:21:06;;;;;;;7.00;2.67;;;19.70;94.90;;;;;;5035909;28;19931;-58
2022/08/22 07:23:46;;;;;;;7.88;2.90;;;19.80;95.00;;;;;;5022953;28;20493;-57
2022/08/22 07:26:34;;;;;;;8.93;3.55;;;19.80;94.80;;;;;;5030206;28;20021;-57
2022/08/22 07:29:34;;;;;;;5.82;2.78;;;19.90;94.60;;;;;;5028564;28;20035;-58
2022/08/22 07:32:03;;;;;;;8.52;3.03;;;20.00;94.60;;;;;;5029567;28;20038;-58
2022/08/22 07:34:39;;;;;;;7.15;3.28;;;20.00;94.50;;;;;;5032246;28;20028;-57
2022/08/22 07:37:15;;;;;;;8.88;3.53;;;20.10;94.40;;;;;;5033106;28;20024;-57
2022/08/22 07:39:59;;;;;;;6.57;3.92;;;20.10;94.30;;;;;;5017289;28;20045;-58
2022/08/22 07:42:45;;;;;;;5.28;3.30;;;20.20;94.20;;;;;;5023349;28;20045;-57
2022/08/22 07:45:16;;;;;;;6.90;3.88;;;20.30;94.10;;;;;;5025124;28;20029;-57
2022/08/22 07:48:01;;;;;;;7.05;3.35;;;20.30;94.00;;;;;;5031996;28;20477;-58
2022/08/22 07:50:30;;;;;;;5.43;3.28;;;20.40;93.90;;;;;;5030014;28;20537;-57
2022/08/22 07:53:04;;;;;;;7.95;3.72;;;20.40;93.80;;;;;;5028230;28;20079;-57
2022/08/22 07:55:30;;;;;;;5.97;3.33;;;20.50;93.70;;;;;;5028198;28;20032;-57
2022/08/22 07:58:01;;;;;;;6.78;3.42;;;20.60;93.60;;;;;;5029980;28;20022;-58
2022/08/22 08:00:28;;;;;;;9.68;4.00;;;20.60;93.50;;;;;;5029516;28;20116;-57
2022/08/22 08:02:58;;;;;;;7.50;3.25;;;20.70;93.40;;;;;;5021594;28;20073;-57
2022/08/22 08:05:27;;;;;;;7.32;3.70;;;20.80;93.30;;;;;;5021648;28;20072;-57
2022/08/22 08:07:54;;;;;;;10.13;3.78;;;20.80;93.20;;;;;;5022606;28;20021;-57
2022/08/22 08:10:28;;;;;;;8.48;4.00;;;20.80;93.10;;;;;;5015767;28;20033;-57
2022/08/22 08:13:03;;;;;;;6.20;2.65;;;20.90;92.90;;;;;;5022221;28;20040;-57
2022/08/22 08:15:33;;;;;;;9.90;3.90;;;21.00;92.80;;;;;;5015856;28;20027;-57
2022/08/22 08:18:05;;;;;;;8.20;3.80;;;21.10;92.70;;;;;;5027696;28;20041;-58
2022/08/22 08:20:34;;;;;;;7.85;3.78;;;21.20;92.50;;;;;;5028168;28;20087;-58
2022/08/22 08:23:01;;;;;;;5.45;3.17;;;21.20;92.40;;;;;;5028616;28;20053;-58
2022/08/22 08:25:31;;;;;;;8.15;3.78;;;21.30;92.30;;;;;;5020675;28;20018;-57
2022/08/22 08:30:52;;;;;;;5.45;2.83;;;21.30;92.20;;;;;;5029070;28;19915;-57
2022/08/22 08:33:20;;;;;;;7.90;4.30;;;21.30;92.00;;;;;;5030062;28;20545;-58
2022/08/22 08:35:52;;;;;;;7.00;3.50;;;21.40;91.90;;;;;;5014855;28;20034;-57
2022/08/22 08:38:22;;;;;;;5.90;3.35;;;21.40;91.70;;;;;;5014814;28;20474;-57
2022/08/22 08:41:27;;;;;;;3.90;2.92;;;21.40;91.70;;;;;;5026173;28;20041;-57
2022/08/22 08:44:17;;;;;;;6.65;2.92;;;21.50;91.50;;;;;;5014689;28;20048;-58
2022/08/22 08:47:14;;;;;;;11.68;3.85;;;21.50;91.40;;;;;;5023391;28;20045;-57
2022/08/22 08:50:09;;;;;;;6.95;3.90;;;21.60;91.20;;;;;;5032883;28;20022;-57
2022/08/22 08:52:48;;;;;;;9.32;4.18;;;21.60;91.00;;;;;;5014278;28;20109;-57
2022/08/22 08:55:23;;;;;;;7.05;3.42;;;21.70;91.00;;;;;;5020260;28;20025;-57
2022/08/22 08:58:04;;;;;;;7.80;3.33;;;21.70;90.90;;;;;;5028020;28;20014;-58
2022/08/22 09:00:49;;;;;;;10.73;4.03;;;21.80;90.80;;;;;;5025710;28;20026;-58
2022/08/22 09:03:53;;;;;;;6.60;3.50;;;21.90;90.60;;;;;;5032224;28;20026;-56
2022/08/22 09:06:27;;;;;;;6.68;2.78;;;21.90;90.50;;;;;;5028552;28;20021;-57
2022/08/22 09:09:06;;;;;;;6.90;3.97;;;22.00;90.50;;;;;;5025509;28;20017;-58
2022/08/22 09:11:54;;;;;;;6.03;2.90;;;22.10;90.30;;;;;;5029999;28;20040;-58
2022/08/22 09:14:44;;;;;;;7.63;2.90;;;22.30;90.30;;;;;;5018007;28;20018;-57
2022/08/22 09:17:40;;;;;;;7.47;2.78;;;22.40;90.10;;;;;;5030169;28;20030;-58
2022/08/22 09:20:21;;;;;;;6.95;3.30;;;22.60;89.70;;;;;;5026157;28;20079;-58
2022/08/22 09:23:19;;;;;;;7.80;3.42;;;22.70;88.60;;;;;;5013367;28;20084;-57
2022/08/22 09:26:04;;;;;;;4.10;2.60;;;22.70;88.10;;;;;;5012676;28;20088;-58
2022/08/22 09:28:37;;;;;;;6.53;2.35;;;22.70;87.60;;;;;;5014732;28;20026;-59
2022/08/22 09:31:28;;;;;;;5.93;2.42;;;22.80;87.30;;;;;;5033602;28;20424;-58
2022/08/22 09:34:12;;;;;;;3.97;2.00;;;23.00;86.70;;;;;;5032849;28;20028;-58
2022/08/22 09:37:03;;;;;;;5.00;2.15;;;23.00;86.30;;;;;;5026210;28;20487;-57
2022/08/22 09:39:49;;;;;;;6.28;2.20;;;23.10;85.60;;;;;;5024503;28;20033;-57
2022/08/22 09:42:40;;;;;;;4.63;2.17;;;23.20;85.10;;;;;;5018769;28;20042;-58
2022/08/22 09:45:34;;;;;;;6.05;2.40;;;23.40;84.30;;;;;;5013656;28;20026;-57
2022/08/22 09:48:03;;;;;;;5.03;2.03;;;23.50;83.10;;;;;;5013584;28;20512;-58
2022/08/22 09:50:41;;;;;;;4.47;1.20;;;23.70;82.10;;;;;;5019212;28;20021;-58
2022/08/22 09:53:30;;;;;;;5.35;1.80;;;24.00;81.00;;;;;;5016443;28;20265;-57
2022/08/22 09:56:07;;;;;;;4.55;1.80;;;24.30;79.70;;;;;;5032453;28;20030;-57
2022/08/22 09:58:46;;;;;;;5.22;2.13;;;24.60;78.10;;;;;;5019332;28;20430;-59
2022/08/22 10:01:26;;;;;;;5.30;1.90;;;24.90;75.00;;;;;;5026124;28;20030;-57
2022/08/22 10:04:28;;;;;;;4.85;1.92;;;25.10;74.50;;;;;;5027763;28;20066;-58
2022/08/22 10:07:22;;;;;;;6.43;1.63;;;25.30;73.60;;;;;;5031241;28;20112;-59
2022/08/22 10:10:27;;;;;;;5.05;1.85;;;25.50;73.40;;;;;;5030131;28;20022;-58
2022/08/22 10:13:02;;;;;;;5.10;1.50;;;25.80;72.50;;;;;;5028830;28;20037;-58
2022/08/22 10:16:06;;;;;;;5.18;1.60;;;25.80;71.10;;;;;;5030733;28;20033;-57
2022/08/22 10:18:40;;;;;;;2.65;1.02;;;26.00;70.10;;;;;;5025051;28;20044;-58
2022/08/22 10:21:17;;;;;;;4.63;1.25;;;26.30;69.70;;;;;;5022647;28;20018;-57
2022/08/22 10:23:50;;;;;;;6.35;1.70;;;26.40;69.00;;;;;;5015149;28;20061;-58
2022/08/22 10:26:28;;;;;;;4.30;1.42;;;26.60;67.80;;;;;;5030683;28;20042;-58
2022/08/22 10:29:31;;;;;;;2.75;1.00;;;26.70;67.00;;;;;;5028726;28;20079;-57
2022/08/22 10:32:08;;;;;;;5.35;1.38;;;26.80;66.60;;;;;;5018211;28;20060;-58
2022/08/22 10:34:38;;;;;;;4.13;1.77;;;26.90;64.40;;;;;;5028083;28;20014;-58
2022/08/22 10:37:25;;;;;;;5.13;1.65;;;26.80;63.60;;;;;;5023260;28;20084;-58
2022/08/22 10:40:14;;;;;;;3.50;1.40;;;26.90;64.20;;;;;;5026919;28;20033;-58
2022/08/22 10:43:00;;;;;;;3.65;1.40;;;27.10;64.00;;;;;;5023439;28;20046;-57
2022/08/22 10:45:39;;;;;;;7.97;1.70;;;27.40;63.50;;;;;;5029120;28;20371;-58
2022/08/22 10:48:04;;;;;;;3.63;1.27;;;27.60;62.80;;;;;;5026800;28;20018;-58
2022/08/22 10:50:41;;;;;;;4.10;1.15;;;27.80;61.50;;;;;;5028603;28;20072;-58
2022/08/22 10:53:34;;;;;;;3.75;1.23;;;28.10;61.50;;;;;;5013877;28;20038;-58
2022/08/22 10:56:10;;;;;;;4.03;1.02;;;28.50;60.70;;;;;;5012758;28;20054;-58
2022/08/22 10:58:44;;;;;;;3.38;1.08;;;28.90;59.20;;;;;;5012499;28;20049;-58
2022/08/22 11:01:13;;;;;;;3.35;1.15;;;29.20;58.20;;;;;;5012667;28;20022;-58
2022/08/22 11:04:09;;;;;;;4.95;1.52;;;29.50;56.90;;;;;;5014084;28;20018;-58
2022/08/22 11:06:45;;;;;;;3.53;1.50;;;29.70;53.20;;;;;;5015228;28;20022;-58
2022/08/22 11:09:38;;;;;;;3.80;1.10;;;29.40;52.80;;;;;;5029751;28;20026;-58
2022/08/22 11:12:29;;;;;;;4.70;1.30;;;29.80;54.10;;;;;;5023683;28;20485;-58
2022/08/22 11:15:06;;;;;;;3.08;1.08;;;30.30;51.50;;;;;;5027705;28;20386;-58
2022/08/22 11:17:50;;;;;;;4.45;1.13;;;30.60;51.90;;;;;;5030771;28;20092;-56
2022/08/22 11:20:54;;;;;;;5.22;1.42;;;31.10;51.50;;;;;;5029100;28;20033;-56
2022/08/22 11:23:42;;;;;;;5.75;1.50;;;31.30;49.80;;;;;;5028147;28;20040;-56
2022/08/22 11:26:12;;;;;;;7.50;1.85;;;31.20;47.80;;;;;;5028294;28;20473;-56
2022/08/22 11:29:10;;;;;;;4.18;1.38;;;30.70;47.70;;;;;;5027350;28;20033;-56
2022/08/22 11:31:55;;;;;;;3.63;1.08;;;30.70;49.00;;;;;;5015487;28;20034;-56
2022/08/22 11:34:48;;;;;;;2.85;1.15;;;31.30;49.40;;;;;;5027435;28;20482;-56
2022/08/22 11:37:26;;;;;;;3.33;1.20;;;31.90;48.80;;;;;;5023299;28;20032;-56
2022/08/22 11:40:29;;;;;;;3.58;1.40;;;32.20;48.30;;;;;;5027720;28;20504;-56
2022/08/22 11:43:32;;;;;;;4.20;1.02;;;32.70;48.30;;;;;;5023484;28;20049;-56
2022/08/22 11:46:02;;;;;;;3.63;1.17;;;32.90;48.00;;;;;;5025502;28;20033;-56
2022/08/22 11:48:44;;;;;;;2.17;0.93;;;33.20;47.60;;;;;;5021869;28;20101;-56
2022/08/22 11:51:47;;;;;;;3.80;1.10;;;33.70;47.10;;;;;;5031831;28;20034;-57
2022/08/22 11:54:23;;;;;;;4.60;1.30;;;34.00;46.40;;;;;;5031951;28;20018;-56
2022/08/22 11:57:00;;;;;;;4.13;0.82;;;34.10;46.10;;;;;;5028630;28;20417;-56
2022/08/22 11:59:39;;;;;;;2.63;1.00;;;34.00;45.90;;;;;;5029562;28;20021;-57
2022/08/22 12:02:28;;;;;;;4.95;1.77;;;34.10;46.20;;;;;;5028356;28;20084;-56
2022/08/22 12:05:16;;;;;;;2.08;1.00;;;34.00;45.60;;;;;;5021765;28;20457;-56
2022/08/22 12:07:53;;;;;;;2.30;0.90;;;33.90;45.90;;;;;;5021551;28;20487;-56
2022/08/22 12:10:24;;;;;;;4.70;1.50;;;33.90;45.70;;;;;;5024205;28;20033;-56
2022/08/22 12:13:17;;;;;;;6.07;1.83;;;33.20;43.40;;;;;;5020992;28;20028;-57
2022/08/22 12:16:21;;;;;;;3.47;1.20;;;32.70;45.10;;;;;;5017059;28;20041;-57
2022/08/22 12:18:49;;;;;;;2.88;1.00;;;32.60;45.00;;;;;;5033982;28;20096;-56
2022/08/22 12:21:45;;;;;;;2.97;1.10;;;32.50;45.20;;;;;;5031675;28;20456;-56
2022/08/22 12:24:30;;;;;;;1.77;0.80;;;32.50;45.70;;;;;;5026965;28;20485;-56
2022/08/22 12:27:25;;;;;;;3.25;1.15;;;32.50;45.70;;;;;;5029868;28;20040;-56
2022/08/22 12:30:19;;;;;;;2.78;1.02;;;32.60;45.90;;;;;;5031058;28;20370;-56
2022/08/22 12:33:27;;;;;;;2.47;1.00;;;32.60;45.80;;;;;;5035853;28;20026;-56
2022/08/22 12:36:18;;;;;;;1.90;1.17;;;32.50;45.80;;;;;;5029440;28;20021;-56
2022/08/22 12:39:31;;;;;;;2.20;0.90;;;32.40;45.90;;;;;;5028776;28;20096;-56
2022/08/22 12:42:20;;;;;;;5.57;1.50;;;32.40;46.60;;;;;;5020508;28;20133;-56
2022/08/22 12:45:14;;;;;;;3.55;1.30;;;32.10;44.30;;;;;;5036365;28;20501;-56
2022/08/22 12:47:45;;;;;;;2.47;1.10;;;31.90;44.60;;;;;;5021575;28;20763;-57
2022/08/22 12:50:29;;;;;;;2.22;0.88;;;32.00;44.80;;;;;;5025653;28;20481;-59
2022/08/22 12:53:29;;;;;;;3.47;0.85;;;32.00;44.70;;;;;;5029544;28;20030;-58
2022/08/22 12:56:04;;;;;;;2.08;0.88;;;32.00;44.40;;;;;;5027288;28;20033;-58
2022/08/22 12:58:29;;;;;;;2.25;1.17;;;31.90;44.70;;;;;;5013670;28;20064;-58
2022/08/22 13:01:03;;;;;;;2.20;0.95;;;31.90;44.60;;;;;;5038619;28;20056;-58
2022/08/22 13:03:43;;;;;;;2.78;0.85;;;32.00;44.50;;;;;;5028030;28;20133;-58
2022/08/22 13:06:34;;;;;;;4.70;1.67;;;32.00;44.50;;;;;;5015176;28;20076;-58
2022/08/22 13:09:02;;;;;;;4.32;1.30;;;31.40;43.70;;;;;;5042280;28;20100;-58
2022/08/22 13:11:34;;;;;;;5.10;1.10;;;31.00;45.30;;;;;;5029922;28;20079;-58
2022/08/22 13:14:01;;;;;;;4.15;1.02;;;31.00;45.10;;;;;;5015187;28;20026;-58
2022/08/22 13:16:37;;;;;;;2.22;0.82;;;31.10;45.10;;;;;;5035302;28;20018;-56
2022/08/22 13:19:08;;;;;;;3.63;1.13;;;31.20;44.50;;;;;;5019388;28;20083;-58
2022/08/22 13:21:42;;;;;;;3.30;1.35;;;31.10;44.80;;;;;;5041011;28;20033;-58
2022/08/22 13:24:16;;;;;;;3.47;1.40;;;31.10;44.80;;;;;;5032356;28;20033;-58
2022/08/22 13:26:53;;;;;;;2.00;0.90;;;30.90;44.30;;;;;;5023507;28;20021;-58
2022/08/22 13:29:45;;;;;;;3.72;1.02;;;30.90;44.60;;;;;;5027072;28;20488;-58
2022/08/22 13:32:37;;;;;;;5.55;1.00;;;30.80;44.80;;;;;;5032927;28;20022;-58
2022/08/22 13:35:06;;;;;;;4.70;1.05;;;30.70;43.90;;;;;;5020282;28;20033;-58
2022/08/22 13:37:43;;;;;;;4.60;1.40;;;30.30;43.70;;;;;;5036676;28;20086;-59
2022/08/22 13:40:12;;;;;;;4.13;1.10;;;29.80;43.30;;;;;;5032287;28;20030;-58
2022/08/22 13:42:45;;;;;;;2.75;0.90;;;29.40;44.10;;;;;;5026003;28;20080;-58
2022/08/22 13:45:21;;;;;;;4.90;1.35;;;29.20;44.20;;;;;;5035346;28;20017;-58
2022/08/22 13:47:52;;;;;;;3.83;1.17;;;29.10;44.00;;;;;;5024300;28;20076;-58
2022/08/22 13:50:23;;;;;;;3.58;1.30;;;28.90;44.30;;;;;;5015666;28;20068;-58
2022/08/22 13:53:24;;;;;;;4.15;1.10;;;28.70;44.70;;;;;;5027857;28;20121;-58
2022/08/22 13:56:00;;;;;;;2.95;1.05;;;28.60;45.10;;;;;;5015536;28;20029;-58
2022/08/22 13:58:42;;;;;;;2.72;0.90;;;28.80;45.60;;;;;;5019343;28;20025;-58
2022/08/22 14:01:42;;;;;;;2.75;0.90;;;29.10;45.60;;;;;;5020596;28;20045;-58
2022/08/22 14:04:32;;;;;;;3.22;0.80;;;29.10;45.40;;;;;;5012934;28;20030;-58
2022/08/22 14:07:03;;;;;;;2.88;0.63;;;29.30;45.60;;;;;;5012651;28;20026;-58
2022/08/22 14:09:45;;;;;;;3.50;0.80;;;29.50;45.80;;;;;;5013289;28;20048;-58